Portsmouth, Rhode Island
Current Conditions -  °F | °C
As of 4:53 PM on Thursday 23 Oct 2014 (Local Time) from KUUU Reporting Station
Moderate Rain Moderate Rain  
Wind Chill: 57°   Ceiling: 900
Heat Index: 57°   Visibility: 6mi
Dew Point: 53°   Wind: 17mph
Humidity: 87%   Direction: 350°N
Pressure: 29.53"   Gusts: 25mph
Location:  41.6°N, 71.25°W
Report Text: KUUU 232053Z AUTO 35015G22KT 6SM RA BR OVC009 14/12 A2953 RMK AO2 RAE06B32 CIG 007V013 SLP998 P0002 60002 T01390117 55002
Loading
Personal Weather Stations






























Interactive Weather Map
Tropical Storm Tracking
New forecast layout! Learn more

10-Day Weather Forecast

Advertisements
Track Severe Weather on mobile